YOS weather

Owen Sound / Billy Bishop Regional Airport
Owen Sound, Ontario, Canada

Public forecast

Using degrees Celsius for public forecast. Weather courtesy of forecast.io.

Closest aviation weather report (METAR) to Owen Sound / Billy Bishop Regional Airport

Closest report is Wiarton Airport, 14.8 nm (27.5 km) NW. Retrieved 2019/10/21 21:00 UTC (29 minutes ago):

CYVV 212100Z 11014G20KT 10SM FEW120 BKN180 OVC250 16/07 A2985 RMK AC2AS4CI2 SLP114 DENSITY ALT 1100FT

Closest aviation forecast (TAF) to Owen Sound / Billy Bishop Regional Airport

Closest forecast is Wiarton Airport, 14.8 nm (27.5 km) NW. Retrieved 2019/10/21 20:00 UTC (1 hour ago):

TAF CYVV 211949Z 2120/2123 06005KT P6SM BKN240 BECMG 2114/2116 11010G20KT FM212200 12015G25KT P6SM OVC040 TEMPO 2122/2123 P6SM -SHRA OVC020 RMK NXT FCST WILL BE ISSUED AT 221045Z